createdAt,value
2023-05-06T00:03:13.611Z,5.25
2023-05-06T00:08:17.152Z,5.63
2023-05-06T00:13:19.138Z,2.92
2023-05-06T00:18:22.778Z,4.32
2023-05-06T00:23:26.062Z,2.47
2023-05-06T00:28:28.013Z,3.67
2023-05-06T00:33:29.959Z,3.20
2023-05-06T00:38:33.265Z,3.45
2023-05-06T00:43:35.232Z,8.80
2023-05-06T00:48:37.527Z,4.20
2023-05-06T00:53:41.058Z,3.47
2023-05-06T00:58:43.941Z,4.57
2023-05-06T01:03:46.999Z,3.22
2023-05-06T01:09:08.690Z,3.08
2023-05-06T01:14:17.014Z,3.22
2023-05-06T01:19:34.858Z,3.97
2023-05-06T01:24:39.962Z,3.95
2023-05-06T01:29:44.106Z,4.85
2023-05-06T01:34:55.173Z,3.03
2023-05-06T01:40:00.802Z,4.65
2023-05-06T01:45:07.059Z,7.18
2023-05-06T01:50:10.236Z,6.00
2023-05-06T01:55:13.592Z,4.28
2023-05-06T02:00:16.464Z,9.38
2023-05-06T02:05:18.747Z,7.93
2023-05-06T02:10:22.186Z,4.35
2023-05-06T02:15:24.125Z,5.80
2023-05-06T02:20:26.289Z,5.90
2023-05-06T02:25:29.580Z,5.45
2023-05-06T02:30:32.252Z,5.72
2023-05-06T02:35:34.201Z,3.55
2023-05-06T02:40:37.463Z,4.38
2023-05-06T02:50:41.448Z,2.60
2023-05-06T02:55:44.808Z,4.13
2023-05-06T03:05:48.580Z,4.65
2023-05-06T03:10:52.356Z,4.13
2023-05-06T03:15:54.587Z,3.60
2023-05-06T03:20:56.510Z,7.00
2023-05-06T03:25:59.762Z,3.72
2023-05-06T03:36:04.085Z,4.63
2023-05-06T03:41:07.549Z,6.53
2023-05-06T03:46:09.509Z,7.82
2023-05-06T03:51:11.561Z,4.35
2023-05-06T03:56:18.042Z,3.78
2023-05-06T04:01:20.563Z,4.82
2023-05-06T04:06:22.629Z,4.20
2023-05-06T04:11:27.067Z,3.13
2023-05-06T04:16:30.650Z,4.60
2023-05-06T04:21:33.091Z,7.07
2023-05-06T04:26:36.628Z,4.95
2023-05-06T04:31:38.931Z,3.85
2023-05-06T04:36:41.028Z,5.28
2023-05-06T04:41:44.501Z,7.95
2023-05-06T04:46:47.445Z,6.97
2023-05-06T04:56:52.539Z,6.90
2023-05-06T05:01:54.703Z,7.95
2023-05-06T05:06:57.652Z,5.63
2023-05-06T05:12:02.564Z,6.20
2023-05-06T05:17:04.627Z,6.72
2023-05-06T05:22:06.605Z,8.30
2023-05-06T05:27:10.897Z,7.05
2023-05-06T05:32:12.869Z,12.15
2023-05-06T05:37:14.819Z,6.10
2023-05-06T05:42:18.182Z,7.18
2023-05-06T05:47:20.602Z,6.55
2023-05-06T05:52:22.615Z,6.20
2023-05-06T05:57:26.090Z,5.35
2023-05-06T06:02:28.098Z,5.95
2023-05-06T06:07:30.204Z,7.07
2023-05-06T06:12:33.548Z,8.88
2023-05-06T06:17:35.732Z,5.93
2023-05-06T06:22:37.991Z,7.85
2023-05-06T06:27:41.340Z,7.00
2023-05-06T06:32:49.251Z,5.10
2023-05-06T06:37:51.689Z,4.13
2023-05-06T06:42:55.137Z,5.32
2023-05-06T06:47:57.370Z,5.45
2023-05-06T06:52:59.801Z,5.75
2023-05-06T06:58:03.277Z,6.20
2023-05-06T07:03:05.295Z,8.60
2023-05-06T07:08:09.591Z,4.15
2023-05-06T07:13:13.056Z,4.05
2023-05-06T07:18:15.282Z,4.45
2023-05-06T07:23:17.334Z,3.80
2023-05-06T07:28:20.924Z,4.20
2023-05-06T07:33:22.964Z,5.20
2023-05-06T07:43:28.262Z,4.22
2023-05-06T07:48:30.828Z,6.22
2023-05-06T07:53:33.016Z,5.20
2023-05-06T07:58:36.329Z,7.45
2023-05-06T08:03:38.532Z,4.93
2023-05-06T08:08:40.637Z,9.40
2023-05-06T08:13:43.939Z,6.28
2023-05-06T08:18:45.928Z,4.68
2023-05-06T08:23:47.878Z,3.63
2023-05-06T08:33:54.648Z,4.82
2023-05-06T08:38:57.053Z,6.78
2023-05-06T08:49:03.710Z,4.30
2023-05-06T08:59:09.401Z,4.90
2023-05-06T09:04:12.512Z,4.93
2023-05-06T09:09:15.016Z,5.10
2023-05-06T09:14:18.390Z,6.93
2023-05-06T09:19:21.992Z,7.18
2023-05-06T09:24:24.134Z,7.97
2023-05-06T09:34:29.488Z,5.93
2023-05-06T09:39:31.489Z,7.40
2023-05-06T09:44:34.946Z,4.68
2023-05-06T09:49:37.088Z,8.57
2023-05-06T09:54:39.995Z,6.68
2023-05-06T09:59:43.764Z,8.55
2023-05-06T10:04:48.392Z,6.28
2023-05-06T10:09:53.298Z,13.25
2023-05-06T10:15:00.201Z,14.57
2023-05-06T10:20:05.257Z,12.00
2023-05-06T10:25:16.760Z,15.70
2023-05-06T10:30:20.896Z,17.58
2023-05-06T10:35:38.372Z,15.63
2023-05-06T10:40:40.877Z,15.98
2023-05-06T10:51:27.612Z,12.07
2023-05-06T10:56:31.955Z,7.60
2023-05-06T11:01:35.390Z,8.27
2023-05-06T11:06:44.412Z,6.88
2023-05-06T11:11:48.351Z,7.20
2023-05-06T11:16:52.046Z,7.88
2023-05-06T11:21:57.407Z,10.45
2023-05-06T11:27:00.375Z,7.25
2023-05-06T11:32:03.647Z,7.72
2023-05-06T11:37:07.868Z,5.78
2023-05-06T11:42:09.952Z,5.25
2023-05-06T11:47:11.979Z,6.03
2023-05-06T11:52:15.259Z,4.97
2023-05-06T11:57:17.387Z,8.00
2023-05-06T12:02:20.269Z,5.72
2023-05-06T12:07:23.953Z,5.07
2023-05-06T12:12:27.296Z,5.70
2023-05-06T12:17:29.410Z,4.45
2023-05-06T12:22:33.272Z,4.15
2023-05-06T12:27:35.915Z,4.38
2023-05-06T12:37:56.715Z,5.15
2023-05-06T12:42:58.795Z,4.72
2023-05-06T12:48:05.680Z,6.78
2023-05-06T12:53:11.118Z,3.92
2023-05-06T12:58:17.136Z,8.23
2023-05-06T13:03:19.338Z,16.55
2023-05-06T13:13:24.771Z,21.33
2023-05-06T13:18:26.786Z,19.17
2023-05-06T13:23:31.319Z,15.65
2023-05-06T13:28:33.754Z,11.32
2023-05-06T13:38:39.324Z,5.70
2023-05-06T13:43:41.283Z,6.43
2023-05-06T13:48:43.224Z,7.28
2023-05-06T13:53:46.556Z,10.82
2023-05-06T13:58:48.611Z,15.40
2023-05-06T14:03:50.763Z,8.48
2023-05-06T14:08:54.085Z,9.23
2023-05-06T14:13:57.212Z,11.77
2023-05-06T14:18:59.363Z,10.05
2023-05-06T14:29:07.112Z,11.15
2023-05-06T14:34:09.247Z,11.98
2023-05-06T14:39:12.686Z,17.23
2023-05-06T14:44:15.244Z,11.55
2023-05-06T14:49:17.201Z,16.33
2023-05-06T14:54:20.626Z,14.15
2023-05-06T14:59:22.897Z,13.07
2023-05-06T15:09:28.408Z,15.52
2023-05-06T15:14:30.361Z,25.17
2023-05-06T15:19:33.444Z,17.80
2023-05-06T15:24:36.843Z,21.35
2023-05-06T15:29:41.560Z,15.43
2023-05-06T15:34:43.579Z,23.33
2023-05-06T15:39:47.800Z,24.60
2023-05-06T15:44:51.454Z,17.77
2023-05-06T15:49:55.030Z,21.27
2023-05-06T15:55:00.088Z,17.08
2023-05-06T16:00:02.163Z,23.50
2023-05-06T16:05:04.693Z,13.82
2023-05-06T16:10:09.035Z,18.90
2023-05-06T16:15:11.432Z,20.52
2023-05-06T16:20:13.738Z,21.63
2023-05-06T16:30:19.307Z,16.55
2023-05-06T16:35:21.316Z,19.02
2023-05-06T16:40:24.681Z,19.92
2023-05-06T16:45:26.698Z,16.50
2023-05-06T16:50:28.878Z,19.38
2023-05-06T16:55:32.325Z,18.30
2023-05-06T17:00:34.373Z,18.55
2023-05-06T17:05:36.464Z,11.80
2023-05-06T17:10:39.758Z,11.57
2023-05-06T17:15:41.774Z,16.25
2023-05-06T17:20:54.215Z,16.77
2023-05-06T17:25:59.586Z,13.93
2023-05-06T17:31:01.576Z,8.20
2023-05-06T17:36:03.907Z,23.98
2023-05-06T17:41:07.260Z,15.20
2023-05-06T17:46:09.542Z,17.58
2023-05-06T17:51:11.642Z,9.75
2023-05-06T17:56:15.024Z,15.15
2023-05-06T18:01:17.025Z,18.67
2023-05-06T18:06:19.007Z,19.67
2023-05-06T18:11:22.432Z,20.42
2023-05-06T18:16:24.537Z,40.78
2023-05-06T18:21:27.696Z,20.17
2023-05-06T18:26:43.969Z,22.23
2023-05-06T18:31:48.106Z,15.82
2023-05-06T18:36:50.245Z,16.20
2023-05-06T18:41:53.570Z,20.23
2023-05-06T18:46:55.777Z,18.38
2023-05-06T18:51:57.797Z,17.67
2023-05-06T18:57:02.312Z,19.67
2023-05-06T19:02:05.778Z,19.42
2023-05-06T19:07:07.936Z,17.52
2023-05-06T19:12:11.499Z,19.20
2023-05-06T19:17:14.322Z,18.02
2023-05-06T19:27:19.577Z,21.70
2023-05-06T19:32:21.549Z,16.88
2023-05-06T19:37:23.569Z,16.95
2023-05-06T19:42:26.906Z,17.55
2023-05-06T19:47:29.504Z,19.42
2023-05-06T19:52:33.358Z,14.88
2023-05-06T19:57:37.331Z,11.23
2023-05-06T20:02:40.278Z,12.50
2023-05-06T20:07:42.405Z,16.27
2023-05-06T20:12:45.803Z,22.70
2023-05-06T20:17:47.961Z,22.60
2023-05-06T20:22:50.037Z,16.50
2023-05-06T20:27:53.400Z,19.98
2023-05-06T20:32:55.398Z,17.13
2023-05-06T20:37:57.422Z,31.17
2023-05-06T20:43:00.970Z,19.85
2023-05-06T20:48:03.087Z,20.33
2023-05-06T20:53:05.147Z,21.67
2023-05-06T20:58:08.618Z,22.85
2023-05-06T21:03:10.809Z,26.13
2023-05-06T21:08:13.259Z,21.17
2023-05-06T21:13:16.644Z,25.67
2023-05-06T21:18:18.875Z,24.83
2023-05-06T21:23:21.115Z,26.10
2023-05-06T21:28:24.569Z,22.75
2023-05-06T21:33:26.549Z,26.52
2023-05-06T21:38:28.551Z,23.73
2023-05-06T21:43:33.294Z,22.50
2023-05-06T21:48:35.686Z,20.05
2023-05-06T21:53:37.660Z,23.02
2023-05-06T21:58:40.969Z,20.63
2023-05-06T22:03:44.056Z,12.27
2023-05-06T22:08:46.186Z,19.15
2023-05-06T22:13:50.859Z,17.40
2023-05-06T22:18:53.090Z,18.05
2023-05-06T22:23:55.016Z,18.85
2023-05-06T22:28:58.461Z,17.58
2023-05-06T22:34:04.397Z,15.38
2023-05-06T22:39:06.643Z,16.08
2023-05-06T22:44:10.181Z,29.33
2023-05-06T22:49:12.140Z,26.17
2023-05-06T22:54:14.099Z,13.65
2023-05-06T22:59:17.409Z,24.23
2023-05-06T23:04:19.404Z,18.30
2023-05-06T23:09:21.528Z,18.48
2023-05-06T23:14:24.992Z,22.33
2023-05-06T23:19:26.972Z,31.55
2023-05-06T23:24:28.923Z,21.13
2023-05-06T23:29:32.214Z,29.60
2023-05-06T23:34:34.203Z,23.73
2023-05-06T23:39:36.426Z,17.98
2023-05-06T23:44:39.962Z,25.80
2023-05-06T23:49:41.973Z,16.55
2023-05-06T23:54:43.927Z,17.40
2023-05-06T23:59:47.234Z,18.05
